createdAt,value
2018-10-16T00:00:58.897Z,22.90
2018-10-16T00:03:28.328Z,24.00
2018-10-16T00:05:57.676Z,21.50
2018-10-16T00:08:26.025Z,21.20
2018-10-16T00:10:54.405Z,22.37
2018-10-16T00:13:22.770Z,22.73
2018-10-16T00:15:51.117Z,21.90
2018-10-16T00:18:19.509Z,23.03
2018-10-16T00:20:47.848Z,23.70
2018-10-16T00:23:16.197Z,23.03
2018-10-16T00:25:44.613Z,23.27
2018-10-16T00:28:12.972Z,22.20
2018-10-16T00:30:41.311Z,22.30
2018-10-16T00:33:10.716Z,22.10
2018-10-16T00:35:39.048Z,21.93
2018-10-16T00:38:07.423Z,22.80
2018-10-16T00:40:35.792Z,24.63
2018-10-16T00:43:04.150Z,22.33
2018-10-16T00:45:32.488Z,23.80
2018-10-16T00:48:01.869Z,23.83
2018-10-16T00:50:30.217Z,22.80
2018-10-16T00:52:58.564Z,22.17
2018-10-16T00:55:26.888Z,23.50
2018-10-16T00:57:55.237Z,22.97
2018-10-16T01:00:23.580Z,23.90
2018-10-16T01:02:51.923Z,23.60
2018-10-16T01:05:21.343Z,21.80
2018-10-16T01:07:49.684Z,23.00
2018-10-16T01:10:18.048Z,22.40
2018-10-16T01:12:46.416Z,22.43
2018-10-16T01:15:14.764Z,22.10
2018-10-16T01:17:43.105Z,21.20
2018-10-16T01:20:13.156Z,22.00
2018-10-16T01:22:42.177Z,23.13
2018-10-16T01:25:11.624Z,22.43
2018-10-16T01:27:40.511Z,21.90
2018-10-16T01:30:08.998Z,22.73
2018-10-16T01:32:37.982Z,23.87
2018-10-16T01:35:07.296Z,21.97
2018-10-16T01:37:35.648Z,22.00
2018-10-16T01:40:05.364Z,22.53
2018-10-16T01:42:33.712Z,23.10
2018-10-16T01:45:02.072Z,24.50
2018-10-16T01:47:30.473Z,23.80
2018-10-16T01:49:58.816Z,25.17
2018-10-16T01:52:27.160Z,22.67
2018-10-16T01:54:55.517Z,22.10
2018-10-16T01:57:23.876Z,22.67
2018-10-16T01:59:52.292Z,23.23
2018-10-16T02:02:20.640Z,24.27
2018-10-16T02:04:48.989Z,23.70
2018-10-16T02:07:17.337Z,23.40
2018-10-16T02:09:45.688Z,24.30
2018-10-16T02:12:14.045Z,24.17
2018-10-16T02:14:42.452Z,23.00
2018-10-16T02:17:10.753Z,23.40
2018-10-16T02:19:39.105Z,25.13
2018-10-16T02:22:07.452Z,23.10
2018-10-16T02:24:36.822Z,26.57
2018-10-16T02:27:05.225Z,23.53
2018-10-16T02:29:33.576Z,23.60
2018-10-16T02:32:01.925Z,24.87
2018-10-16T02:34:30.285Z,25.17
2018-10-16T02:36:58.632Z,23.27
2018-10-16T02:39:26.968Z,23.20
2018-10-16T02:41:55.313Z,23.50
2018-10-16T02:44:23.655Z,23.37
2018-10-16T02:46:51.992Z,25.30
2018-10-16T02:49:20.340Z,24.23
2018-10-16T02:51:48.671Z,23.23
2018-10-16T02:54:17.052Z,25.50
2018-10-16T02:56:45.384Z,27.00
2018-10-16T02:59:14.837Z,25.93
2018-10-16T03:01:43.172Z,26.50
2018-10-16T03:04:11.524Z,26.00
2018-10-16T03:06:39.861Z,24.67
2018-10-16T03:09:09.048Z,26.20
2018-10-16T03:11:37.387Z,25.60
2018-10-16T03:14:07.796Z,26.37
2018-10-16T03:16:36.145Z,25.77
2018-10-16T03:19:04.484Z,27.80
2018-10-16T03:21:32.844Z,25.77
2018-10-16T03:24:01.186Z,26.83
2018-10-16T03:26:29.529Z,26.10
2018-10-16T03:28:57.873Z,28.33
2018-10-16T03:31:26.404Z,27.07
2018-10-16T03:33:54.765Z,25.57
2018-10-16T03:36:23.098Z,25.07
2018-10-16T03:38:51.428Z,25.07
2018-10-16T03:41:19.747Z,24.83
2018-10-16T03:43:53.911Z,27.47
2018-10-16T03:46:22.236Z,26.40
2018-10-16T03:48:50.600Z,24.07
2018-10-16T03:51:18.955Z,26.30
2018-10-16T03:53:47.937Z,23.83
2018-10-16T03:56:16.313Z,27.90
2018-10-16T03:58:44.640Z,29.67
2018-10-16T04:01:12.972Z,28.63
2018-10-16T04:03:41.292Z,25.83
2018-10-16T04:06:09.640Z,27.57
2018-10-16T04:08:37.996Z,26.80
2018-10-16T04:11:06.499Z,25.10
2018-10-16T04:13:35.927Z,26.40
2018-10-16T04:16:04.284Z,26.77
2018-10-16T04:18:32.608Z,25.37
2018-10-16T04:21:00.985Z,27.30
2018-10-16T04:23:29.296Z,28.33
2018-10-16T04:25:57.743Z,26.80
2018-10-16T04:28:26.284Z,27.30
2018-10-16T04:30:54.621Z,26.83
2018-10-16T04:33:22.997Z,26.37
2018-10-16T04:35:51.337Z,32.80
2018-10-16T04:38:19.688Z,28.60
2018-10-16T04:40:49.125Z,29.30
2018-10-16T04:43:17.589Z,26.00
2018-10-16T04:45:45.944Z,26.50
2018-10-16T04:48:14.360Z,26.77
2018-10-16T04:50:42.826Z,26.80
2018-10-16T04:53:11.182Z,27.43
2018-10-16T04:55:39.504Z,29.17
2018-10-16T04:58:07.976Z,31.83
2018-10-16T05:00:36.359Z,28.50
2018-10-16T05:03:05.050Z,27.40
2018-10-16T05:05:33.441Z,30.17
2018-10-16T05:08:01.809Z,30.40
2018-10-16T05:10:30.278Z,27.40
2018-10-16T05:12:58.598Z,28.43
2018-10-16T05:15:28.148Z,27.00
2018-10-16T05:17:58.629Z,26.97
2018-10-16T05:20:27.161Z,27.93
2018-10-16T05:22:56.424Z,27.37
2018-10-16T05:25:25.744Z,26.77
2018-10-16T05:27:55.940Z,27.97
2018-10-16T05:30:24.326Z,27.93
2018-10-16T05:32:52.756Z,28.57
2018-10-16T05:35:21.121Z,28.63
2018-10-16T05:37:49.473Z,28.70
2018-10-16T05:40:17.846Z,29.47
2018-10-16T05:42:46.185Z,29.43
2018-10-16T05:45:14.757Z,28.77
2018-10-16T05:47:44.348Z,30.20
2018-10-16T05:50:12.764Z,29.50
2018-10-16T05:52:41.111Z,30.55
2018-10-16T05:55:10.008Z,29.77
2018-10-16T05:57:38.352Z,28.67
2018-10-16T06:00:18.788Z,29.00
2018-10-16T06:02:47.792Z,27.33
2018-10-16T06:05:16.919Z,28.20
2018-10-16T06:07:45.296Z,29.00
2018-10-16T06:10:14.104Z,28.20
2018-10-16T06:12:43.197Z,29.40
2018-10-16T06:15:12.876Z,30.60
2018-10-16T06:17:45.436Z,29.03
2018-10-16T06:20:14.031Z,30.50
2018-10-16T06:22:43.133Z,30.57
2018-10-16T06:25:12.564Z,29.17
2018-10-16T06:27:42.178Z,29.20
2018-10-16T06:30:10.839Z,31.17
2018-10-16T06:32:39.389Z,30.37
2018-10-16T06:35:08.553Z,29.57
2018-10-16T06:37:36.932Z,30.13
2018-10-16T06:40:05.913Z,28.40
2018-10-16T06:42:34.340Z,29.60
2018-10-16T06:45:03.867Z,29.20
2018-10-16T06:47:32.288Z,29.00
2018-10-16T06:50:00.647Z,30.80
2018-10-16T06:52:29.021Z,28.40
2018-10-16T06:54:57.499Z,29.60
2018-10-16T06:57:25.818Z,31.83
2018-10-16T06:59:54.181Z,29.70
2018-10-16T07:02:22.561Z,30.83
2018-10-16T07:04:50.913Z,32.40
2018-10-16T07:07:19.412Z,33.27
2018-10-16T07:09:47.628Z,30.93
2018-10-16T07:12:15.993Z,30.03
2018-10-16T07:14:44.373Z,29.97
2018-10-16T07:17:12.721Z,30.37
2018-10-16T07:19:41.120Z,30.57
2018-10-16T07:22:11.045Z,30.83
2018-10-16T07:24:39.397Z,30.80
2018-10-16T07:27:07.917Z,30.50
2018-10-16T07:29:36.593Z,30.53
2018-10-16T07:32:05.425Z,31.93
2018-10-16T07:34:34.377Z,29.90
2018-10-16T07:37:03.797Z,30.77
2018-10-16T07:39:32.228Z,34.70
2018-10-16T07:42:01.670Z,33.07
2018-10-16T07:44:30.122Z,32.50
2018-10-16T07:46:58.641Z,33.37
2018-10-16T07:49:26.985Z,36.27
2018-10-16T07:51:57.368Z,35.80
2018-10-16T07:54:25.721Z,36.70
2018-10-16T07:56:54.056Z,37.63
2018-10-16T07:59:22.429Z,41.23
2018-10-16T08:01:51.907Z,41.37
2018-10-16T08:04:20.320Z,39.80
2018-10-16T08:06:48.695Z,44.80
2018-10-16T08:09:18.152Z,44.10
2018-10-16T08:11:47.616Z,45.23
2018-10-16T08:14:17.253Z,42.10
2018-10-16T08:16:46.936Z,42.93
2018-10-16T08:19:15.644Z,43.30
2018-10-16T08:21:44.815Z,44.95
2018-10-16T08:24:14.252Z,39.97
2018-10-16T08:26:42.700Z,38.13
2018-10-16T08:29:10.996Z,39.40
2018-10-16T08:31:39.624Z,38.90
2018-10-16T08:34:08.084Z,36.00
2018-10-16T08:36:36.489Z,35.47
2018-10-16T08:39:13.900Z,35.40
2018-10-16T08:44:13.117Z,35.17
2018-10-16T08:46:52.780Z,34.83
2018-10-16T08:49:32.337Z,36.87
2018-10-16T08:52:00.704Z,36.23
2018-10-16T08:54:29.065Z,36.07
2018-10-16T08:56:57.426Z,35.87
2018-10-16T08:59:25.809Z,38.03
2018-10-16T09:01:54.236Z,35.80
2018-10-16T09:04:22.613Z,36.60
2018-10-16T09:06:51.030Z,34.50
2018-10-16T09:09:19.576Z,34.50
2018-10-16T09:11:50.090Z,34.63
2018-10-16T09:14:18.905Z,34.93
2018-10-16T09:16:47.576Z,34.30
2018-10-16T09:19:15.972Z,33.77
2018-10-16T09:21:44.440Z,35.90
2018-10-16T09:24:12.813Z,35.70
2018-10-16T09:26:41.217Z,35.80
2018-10-16T09:29:09.743Z,34.70
2018-10-16T09:31:41.869Z,33.77
2018-10-16T09:34:10.536Z,35.00
2018-10-16T09:36:38.907Z,33.97
2018-10-16T09:39:10.410Z,33.27
2018-10-16T09:41:38.759Z,32.10
2018-10-16T09:44:07.146Z,32.47
2018-10-16T09:46:35.514Z,32.80
2018-10-16T09:49:03.910Z,34.50
2018-10-16T09:51:32.299Z,31.03
2018-10-16T09:54:02.041Z,36.23
2018-10-16T09:56:31.649Z,33.33
2018-10-16T09:59:00.085Z,34.37
2018-10-16T10:01:33.697Z,35.27
2018-10-16T10:04:02.177Z,34.47
2018-10-16T10:06:31.699Z,35.30
2018-10-16T10:09:00.073Z,34.43
2018-10-16T10:11:28.486Z,35.57
2018-10-16T10:13:56.861Z,34.00
2018-10-16T10:16:25.233Z,36.17
2018-10-16T10:18:53.701Z,27.10
2018-10-16T10:21:22.075Z,30.43
2018-10-16T10:23:50.476Z,28.77
2018-10-16T10:26:18.897Z,27.20
2018-10-16T10:28:47.246Z,20.83
2018-10-16T10:31:15.604Z,24.27
2018-10-16T10:33:44.045Z,22.17
2018-10-16T10:36:12.622Z,19.67
2018-10-16T10:38:41.114Z,16.10
2018-10-16T10:41:09.666Z,18.00
2018-10-16T10:43:38.022Z,17.77
2018-10-16T10:46:06.837Z,17.80
2018-10-16T10:48:35.196Z,18.07
2018-10-16T10:51:03.701Z,16.83
2018-10-16T10:53:31.918Z,17.53
2018-10-16T10:56:00.284Z,18.17
2018-10-16T10:58:28.637Z,18.70
2018-10-16T11:00:57.008Z,17.27
2018-10-16T11:03:25.488Z,19.10
2018-10-16T11:05:53.748Z,16.50
2018-10-16T11:08:22.108Z,15.73
2018-10-16T11:10:51.508Z,18.03
2018-10-16T11:13:19.864Z,18.40
2018-10-16T11:15:48.369Z,18.17
2018-10-16T11:18:17.724Z,18.80
2018-10-16T11:20:46.093Z,12.43
2018-10-16T11:23:14.454Z,11.13
2018-10-16T11:25:42.813Z,9.23
2018-10-16T11:28:11.180Z,9.50
2018-10-16T11:30:39.557Z,9.40
2018-10-16T11:33:07.976Z,11.50
2018-10-16T11:35:36.290Z,11.77
2018-10-16T11:38:04.761Z,11.10
2018-10-16T11:40:33.141Z,14.53
2018-10-16T11:43:01.484Z,14.47
2018-10-16T11:45:29.856Z,15.37
2018-10-16T11:47:58.217Z,17.10
2018-10-16T11:50:26.613Z,17.90
2018-10-16T11:52:54.978Z,18.57
2018-10-16T11:55:23.353Z,17.60
2018-10-16T11:57:51.694Z,18.37
2018-10-16T12:00:20.102Z,19.10
2018-10-16T12:02:48.876Z,19.33
2018-10-16T12:05:17.236Z,18.70
2018-10-16T12:07:45.593Z,18.53
2018-10-16T12:10:15.988Z,17.00
2018-10-16T12:12:44.333Z,18.40
2018-10-16T12:15:12.680Z,18.10
2018-10-16T12:17:49.120Z,17.97
2018-10-16T12:20:20.552Z,20.33
2018-10-16T12:22:48.910Z,20.30
2018-10-16T12:25:17.413Z,19.40
2018-10-16T12:27:45.728Z,22.33
2018-10-16T12:30:16.121Z,18.33
2018-10-16T12:32:44.588Z,20.53
2018-10-16T12:35:12.929Z,20.17
2018-10-16T12:37:41.270Z,20.90
2018-10-16T12:40:10.936Z,20.10
2018-10-16T12:42:39.447Z,20.53
2018-10-16T12:45:08.453Z,21.00
2018-10-16T12:47:36.811Z,20.30
2018-10-16T12:50:05.533Z,21.87
2018-10-16T12:52:33.874Z,20.07
2018-10-16T12:55:02.277Z,20.10
2018-10-16T12:57:30.681Z,20.07
2018-10-16T12:59:59.076Z,21.40
2018-10-16T13:02:27.444Z,24.60
2018-10-16T13:04:57.812Z,23.57
2018-10-16T13:07:35.284Z,22.50
2018-10-16T13:10:04.549Z,21.47
2018-10-16T13:12:32.888Z,23.93
2018-10-16T13:15:02.347Z,24.10
2018-10-16T13:17:31.797Z,21.50
2018-10-16T13:20:00.214Z,23.80
2018-10-16T13:22:28.580Z,24.70
2018-10-16T13:24:56.966Z,25.90
2018-10-16T13:27:25.369Z,25.97
2018-10-16T13:29:53.799Z,25.80
2018-10-16T13:32:22.166Z,26.40
2018-10-16T13:34:50.678Z,25.70
2018-10-16T13:37:19.090Z,25.20
2018-10-16T13:39:47.453Z,28.43
2018-10-16T13:42:15.889Z,27.37
2018-10-16T13:44:45.329Z,27.03
2018-10-16T13:47:13.701Z,26.83
2018-10-16T13:49:42.063Z,25.50
2018-10-16T13:52:10.478Z,26.33
2018-10-16T13:54:38.849Z,29.30
2018-10-16T13:57:07.224Z,30.93
2018-10-16T13:59:35.661Z,32.80
2018-10-16T14:02:04.248Z,33.17
2018-10-16T14:04:32.553Z,32.90
2018-10-16T14:07:00.925Z,29.90
2018-10-16T14:09:29.285Z,29.47
2018-10-16T14:11:58.673Z,31.77
2018-10-16T14:14:27.033Z,29.07
2018-10-16T14:16:55.391Z,31.73
2018-10-16T14:19:23.746Z,30.23
2018-10-16T14:21:52.181Z,33.03
2018-10-16T14:24:20.531Z,29.47
2018-10-16T14:26:48.952Z,33.20
2018-10-16T14:29:18.381Z,34.97
2018-10-16T14:31:46.736Z,35.63
2018-10-16T14:34:15.108Z,34.63
2018-10-16T14:36:43.722Z,39.23
2018-10-16T14:39:12.826Z,35.53
2018-10-16T14:41:42.277Z,34.40
2018-10-16T14:44:11.729Z,36.47
2018-10-16T14:46:40.037Z,37.23
2018-10-16T14:49:09.417Z,36.57
2018-10-16T14:51:41.593Z,35.60
2018-10-16T14:54:09.969Z,37.60
2018-10-16T14:56:38.337Z,38.53
2018-10-16T14:59:06.711Z,40.47
2018-10-16T15:01:35.141Z,38.00
2018-10-16T15:04:03.498Z,39.50
2018-10-16T15:06:31.848Z,39.57
2018-10-16T15:09:01.217Z,39.50
2018-10-16T15:11:29.689Z,41.43
2018-10-16T15:13:58.043Z,42.20
2018-10-16T15:16:27.564Z,41.40
2018-10-16T15:18:55.913Z,40.37
2018-10-16T15:21:24.301Z,40.43
2018-10-16T15:23:52.747Z,41.97
2018-10-16T15:26:22.088Z,40.67
2018-10-16T15:28:50.444Z,39.40
2018-10-16T15:31:18.800Z,44.17
2018-10-16T15:33:47.145Z,41.10
2018-10-16T15:36:15.515Z,38.37
2018-10-16T15:38:43.876Z,39.60
2018-10-16T15:41:12.249Z,40.47
2018-10-16T15:43:40.608Z,40.67
2018-10-16T15:46:09.073Z,41.67
2018-10-16T15:48:37.372Z,37.83
2018-10-16T15:51:05.745Z,39.07
2018-10-16T15:53:34.130Z,37.57
2018-10-16T15:56:02.529Z,39.50
2018-10-16T15:58:30.984Z,42.27
2018-10-16T16:00:59.409Z,43.17
2018-10-16T16:03:27.816Z,43.97
2018-10-16T16:05:56.207Z,43.00
2018-10-16T16:08:24.820Z,50.23
2018-10-16T16:10:53.150Z,47.93
2018-10-16T16:13:21.502Z,45.90
2018-10-16T16:15:51.878Z,46.50
2018-10-16T16:18:20.365Z,48.40
2018-10-16T16:20:48.623Z,45.40
2018-10-16T16:23:17.022Z,48.50
2018-10-16T16:25:45.402Z,46.60
2018-10-16T16:28:13.808Z,48.57
2018-10-16T16:30:44.145Z,49.67
2018-10-16T16:33:12.495Z,45.70
2018-10-16T16:35:40.870Z,47.77
2018-10-16T16:38:10.371Z,50.40
2018-10-16T16:40:38.685Z,48.13
2018-10-16T16:43:07.060Z,48.90
2018-10-16T16:45:35.430Z,48.10
2018-10-16T16:48:05.760Z,47.07
2018-10-16T16:50:34.137Z,46.70
2018-10-16T16:53:04.606Z,45.73
2018-10-16T16:55:32.949Z,49.23
2018-10-16T16:58:01.321Z,49.80
2018-10-16T17:00:29.694Z,48.00
2018-10-16T17:02:58.053Z,46.10
2018-10-16T17:05:26.453Z,46.60
2018-10-16T17:07:54.842Z,45.40
2018-10-16T17:10:23.169Z,46.67
2018-10-16T17:12:55.553Z,45.60
2018-10-16T17:15:23.892Z,43.90
2018-10-16T17:17:52.258Z,43.27
2018-10-16T17:20:20.629Z,44.47
2018-10-16T17:22:48.985Z,46.60
2018-10-16T17:25:19.478Z,43.07
2018-10-16T17:27:48.749Z,45.03
2018-10-16T17:30:17.692Z,46.10
2018-10-16T17:32:46.519Z,45.47
2018-10-16T17:35:15.309Z,49.67
2018-10-16T17:37:43.777Z,48.13
2018-10-16T17:40:14.526Z,48.23
2018-10-16T17:42:42.952Z,46.80
2018-10-16T17:45:16.272Z,46.33
2018-10-16T17:47:46.005Z,47.30
2018-10-16T17:50:16.184Z,49.23
2018-10-16T17:52:44.556Z,49.10
2018-10-16T17:55:13.827Z,49.53
2018-10-16T17:57:42.282Z,50.60
2018-10-16T18:00:15.807Z,56.65
2018-10-16T18:02:44.641Z,55.55
2018-10-16T18:05:13.623Z,50.50
2018-10-16T18:07:42.537Z,49.73
2018-10-16T18:10:10.927Z,44.80
2018-10-16T18:12:41.399Z,46.53
2018-10-16T18:15:11.793Z,46.67
2018-10-16T18:17:40.930Z,48.00
2018-10-16T18:20:10.868Z,45.73
2018-10-16T18:22:39.292Z,47.93
2018-10-16T18:25:09.078Z,50.40
2018-10-16T18:27:37.443Z,47.80
2018-10-16T18:30:08.309Z,48.40
2018-10-16T18:32:36.704Z,47.43
2018-10-16T18:35:05.077Z,45.30
2018-10-16T18:37:33.638Z,44.87
2018-10-16T18:40:02.042Z,48.27
2018-10-16T18:42:30.353Z,49.60
2018-10-16T18:44:58.786Z,46.60
2018-10-16T18:47:27.500Z,47.93
2018-10-16T18:49:55.924Z,48.73
2018-10-16T18:52:24.270Z,49.07
2018-10-16T18:54:52.592Z,47.67
2018-10-16T18:57:21.944Z,49.47
2018-10-16T18:59:50.298Z,49.30
2018-10-16T19:02:18.679Z,48.20
2018-10-16T19:04:47.010Z,52.00
2018-10-16T19:07:15.340Z,44.17
2018-10-16T19:09:43.704Z,46.43
2018-10-16T19:12:12.156Z,47.50
2018-10-16T19:14:40.496Z,44.67
2018-10-16T19:17:08.856Z,47.10
2018-10-16T19:19:37.240Z,47.63
2018-10-16T19:22:06.621Z,48.20
2018-10-16T19:24:34.960Z,46.97
2018-10-16T19:27:03.439Z,44.10
2018-10-16T19:29:31.765Z,44.13
2018-10-16T19:32:00.129Z,44.50
2018-10-16T19:34:28.496Z,47.73
2018-10-16T19:36:56.869Z,44.80
2018-10-16T19:39:25.229Z,45.73
2018-10-16T19:41:53.646Z,46.40
2018-10-16T19:44:22.001Z,49.47
2018-10-16T19:46:50.362Z,48.37
2018-10-16T19:49:18.831Z,44.00
2018-10-16T19:51:47.272Z,47.87
2018-10-16T19:54:15.637Z,42.73
2018-10-16T19:56:45.051Z,42.90
2018-10-16T19:59:14.405Z,46.17
2018-10-16T20:01:42.821Z,44.97
2018-10-16T20:04:11.212Z,46.67
2018-10-16T20:06:39.568Z,47.17
2018-10-16T20:09:09.648Z,46.30
2018-10-16T20:11:38.001Z,46.13
2018-10-16T20:14:06.484Z,46.47
2018-10-16T20:16:34.750Z,43.90
2018-10-16T20:19:03.137Z,43.73
2018-10-16T20:21:31.502Z,41.97
2018-10-16T20:23:59.863Z,46.03
2018-10-16T20:26:28.269Z,47.60
2018-10-16T20:28:57.788Z,40.83
2018-10-16T20:31:26.149Z,44.17
2018-10-16T20:33:54.538Z,42.97
2018-10-16T20:36:22.920Z,44.10
2018-10-16T20:38:51.304Z,47.17
2018-10-16T20:41:19.791Z,45.43
2018-10-16T20:43:48.136Z,45.77
2018-10-16T20:46:16.536Z,44.40
2018-10-16T20:48:44.925Z,46.97
2018-10-16T20:51:13.264Z,46.60
2018-10-16T20:53:42.913Z,48.17
2018-10-16T20:56:11.497Z,48.10
2018-10-16T20:58:40.889Z,45.97
2018-10-16T21:01:10.407Z,44.57
2018-10-16T21:03:38.836Z,43.50
2018-10-16T21:06:07.575Z,45.30
2018-10-16T21:08:35.653Z,43.50
2018-10-16T21:11:04.298Z,44.33
2018-10-16T21:13:33.659Z,44.77
2018-10-16T21:16:02.032Z,41.90
2018-10-16T21:18:30.444Z,48.50
2018-10-16T21:20:58.868Z,49.10
2018-10-16T21:23:27.245Z,45.07
2018-10-16T21:25:55.658Z,45.93
2018-10-16T21:28:24.030Z,46.97
2018-10-16T21:30:52.393Z,45.43
2018-10-16T21:33:20.863Z,43.43
2018-10-16T21:35:54.752Z,47.73
2018-10-16T21:38:24.205Z,43.70
2018-10-16T21:40:52.628Z,44.57
2018-10-16T21:43:20.961Z,46.93
2018-10-16T21:45:51.449Z,43.67
2018-10-16T21:48:19.830Z,44.57
2018-10-16T21:50:48.266Z,45.20
2018-10-16T21:53:16.677Z,46.90
2018-10-16T21:55:45.157Z,47.40
2018-10-16T21:58:13.773Z,46.97
2018-10-16T22:00:47.537Z,48.00
2018-10-16T22:03:15.916Z,44.50
2018-10-16T22:05:44.312Z,41.23
2018-10-16T22:08:12.840Z,43.27
2018-10-16T22:10:41.166Z,41.90
2018-10-16T22:13:10.100Z,45.10
2018-10-16T22:15:38.493Z,40.67
2018-10-16T22:18:06.929Z,43.83
2018-10-16T22:20:35.316Z,42.43
2018-10-16T22:23:05.104Z,43.50
2018-10-16T22:25:33.461Z,41.47
2018-10-16T22:28:01.884Z,40.27
2018-10-16T22:30:32.432Z,43.50
2018-10-16T22:33:00.796Z,42.60
2018-10-16T22:35:29.144Z,40.97
2018-10-16T22:37:57.624Z,40.37
2018-10-16T22:40:25.970Z,40.50
2018-10-16T22:42:54.385Z,38.77
2018-10-16T22:45:23.205Z,46.20
2018-10-16T22:47:51.554Z,42.47
2018-10-16T22:50:19.935Z,42.40
2018-10-16T22:52:49.688Z,37.87
2018-10-16T22:55:18.124Z,40.90
2018-10-16T22:57:46.496Z,41.53
2018-10-16T23:00:17.853Z,39.37
2018-10-16T23:02:58.996Z,39.53
2018-10-16T23:05:28.381Z,40.50
2018-10-16T23:07:56.778Z,39.10
2018-10-16T23:10:25.144Z,39.27
2018-10-16T23:12:58.988Z,40.40
2018-10-16T23:15:27.441Z,42.27
2018-10-16T23:17:55.795Z,42.47
2018-10-16T23:20:24.278Z,40.67
2018-10-16T23:22:52.682Z,39.70
2018-10-16T23:25:21.035Z,42.60
2018-10-16T23:27:49.365Z,40.37
2018-10-16T23:30:17.771Z,42.67
2018-10-16T23:32:46.436Z,39.70
2018-10-16T23:35:14.841Z,40.63
2018-10-16T23:37:43.149Z,38.63
2018-10-16T23:40:11.512Z,41.63
2018-10-16T23:42:39.968Z,40.83
2018-10-16T23:45:08.401Z,38.90
2018-10-16T23:47:36.760Z,40.13
2018-10-16T23:50:05.317Z,39.03
2018-10-16T23:52:33.696Z,41.77
2018-10-16T23:55:02.127Z,43.53
2018-10-16T23:57:30.650Z,41.40
2018-10-16T23:59:59.091Z,38.83
